Terminal Aerodrome Forecast
Issued by NWS

Home | Current Version | Previous Version | Text Only | Print | Product List | Glossary On
Versions: 1 2 3 4 5 6 7 8 9 10 11 12 13 14 15 16
000
FTUS44 KLZK 192340
TAFADF
TAF
KADF 192340Z 2000/2024 11005KT P6SM SKC
     FM200800 10004KT 5SM BR SCT250
     FM201200 12006KT 4SM BR BKN015 OVC030
     FM201500 13008KT 5SM BR BKN007 OVC015
     FM201800 15008KT P6SM BKN025 OVC050
     FM202100 17007KT P6SM VCSH BKN050=

USA.gov is the U.S. government's official web portal to all federal, state and local government web resources and services.